Aviation Digital Data Service (ADDS)

Output produced by TAFs form (2350 UTC 24 October 2014)
found at http://aviationweather.gov/adds/tafs/
 
KTCS 242320Z 2500/2524 15007KT P6SM SKC 
     FM250300 31006KT P6SM SKC 
     FM252100 18008KT P6SM FEW250